4.2°F
Current conditions from King Hill
Updated every 5 minutes
 
  Sunday February 1, 2015

Observations for Westford

Westford

44° 37' 39"N, 73° 02' 29"W, Elevation 850 ft.
Eastern Time

Hourly observations for the last 72 hours

Date Time Temperature (F) Humi-
dity

(%)
Wind
(mph)
Pressure Rain (in)
Air Dew 6 Hour 1 Hr 3 Hr 6 Hr Day
Alt
(in)
Sea
Level

(mb)
Max Min
1 16:00 4.4 -5.4 63 N 0 G 2 30.22 1023.5 0.00
1 15:00 6.8 -5.6 56 N 1 G 5 30.23 1023.6 0.00
1 14:00 7.4 -5.8 54 N 1 G 9 30.21 1023.0 0.00
1 13:00 7.1 -2.2 7.1 1.9 65 N 0 G 9 30.22 1023.5 0.00
1 12:00 5.5 -1.9 71 NNW 0 G 10 30.24 1024.2 0.00
1 11:00 5.0 -1.2 75 N 1 G 12 30.26 1024.6 0.00
1 10:00 5.2 0.4 80 NNW 1 G 7 30.26 1024.7 0.00
1 09:00 2.8 -0.2 87 NNW 0 G 10 30.24 1024.1 0.00
1 08:00 2.4 -0.6 87 NW 1 G 9 30.21 1023.1 0.00
1 07:00 3.5 0.7 5.4 0.0 88 NW 2 G 10 30.19 1022.3 0.00
1 06:00 4.6 2.3 90 NNW 1 G 4 30.16 1021.3 0.00
1 05:00 0.4 -2.3 88 Calm 30.14 1020.6 0.00
1 04:00 1.5 -1.5 87 Calm 30.11 1019.8 0.00
1 03:00 2.8 -0.2 87 Calm 30.11 1019.6 0.00
1 02:00 2.7 -0.5 86 Calm 30.10 1019.3 0.00
1 01:00 1.7 -2.0 1.8 -5.4 84 Calm 30.11 1019.5 0.00
1 00:00 1.0 -3.2 82 Calm 30.12 1020.1 0.00
31 23:00 1.1 -3.4 81 Calm 30.14 1020.6 0.00
31 22:00 -2.1 -6.8 80 Calm 30.14 1020.8 0.00
31 21:00 -5.2 -11.4 74 Calm 30.17 1021.6 0.00
31 20:00 -3.5 -9.4 75 Calm 30.17 1021.6 0.00
31 19:00 -2.1 -8.6 5.8 -2.1 73 Calm 30.16 1021.4 0.00
31 18:00 -1.2 -9.8 66 Calm 30.15 1021.1 0.00
31 17:00 0.5 -9.1 63 NNW 0 G 6 30.14 1020.8 0.00
31 16:00 4.8 -7.5 56 N 0 G 5 30.13 1020.4 0.00
31 15:00 5.8 -7.3 54 N 0 G 6 30.13 1020.3 0.00
31 14:00 4.5 -8.5 54 N 2 G 8 30.13 1020.4 0.00
31 13:00 2.2 -7.8 2.2 -11.0 62 N 1 G 8 30.14 1020.7 0.00
31 12:00 -0.5 -10.1 63 NW 6 G 13 30.16 1021.2 0.00
31 11:00 -1.6 -9.3 69 N 0 G 9 30.17 1021.7 0.00
31 10:00 -3.3 -9.8 73 N 2 G 8 30.18 1022.1 0.00
31 09:00 -9.3 -13.3 82 N 1 G 6 30.17 1021.8 0.00
31 08:00 -10.8 -14.5 83 N 0 G 4 30.17 1021.7 0.00
31 07:00 -10.3 -13.8 -0.6 -10.5 84 NNE 3 G 10 30.16 1021.3 0.00
31 06:00 -9.7 -13.4 83 NE 3 G 8 30.14 1020.7 0.00
31 05:00 -8.3 -12.3 82 NW 1 G 7 30.12 1020.0 0.00
31 04:00 -6.3 -10.1 83 NW 1 G 11 30.11 1019.8 0.00
31 03:00 -4.6 -8.7 82 NNW 6 G 13 30.11 1019.6 0.00
31 02:00 -2.1 -6.2 82 NNW 8 G 18 30.10 1019.3 0.00
31 01:00 -0.6 -4.5 7.9 -0.6 83 NW 5 G 14 30.08 1018.7 0.00
31 00:00 1.2 -2.5 84 NW 6 G 19 30.08 1018.5 0.00
30 23:00 2.9 -1.1 83 NW 11 G 16 30.06 1018.0 0.00
30 22:00 4.4 0.4 83 NNW 9 G 21 30.05 1017.7 0.00
30 21:00 5.5 2.0 85 NNW 8 G 19 30.04 1017.4 0.00
30 20:00 6.9 3.6 86 NW 12 G 24 30.03 1017.1 0.00
30 19:00 7.9 4.8 18.6 7.9 87 NW 8 G 19 30.01 1016.4 0.00
30 18:00 8.9 6.3 89 NW 8 G 19 29.99 1015.4 0.00
30 17:00 10.0 7.4 89 NW 9 G 21 29.95 1014.4 0.00
30 16:00 11.5 8.9 89 NNW 3 G 18 29.93 1013.5 0.00
30 15:00 13.4 10.8 89 NNW 5 G 16 29.90 1012.5 0.00
30 14:00 15.7 12.8 88 NW 5 G 16 29.86 1011.3 0.00
30 13:00 18.6 15.9 26.3 18.6 89 NW 6 G 18 29.84 1010.5 0.00
30 12:00 21.6 19.4 91 NNW 4 G 19 29.82 1010.0 0.00
30 11:00 23.0 21.0 92 NW 3 G 19 29.83 1010.1 0.00
30 10:00 26.2 24.7 94 W 0 G 6 29.80 1009.1 0.00
30 09:00 26.1 24.6 94 SSW 2 G 7 29.79 1008.7 0.00
30 08:00 25.5 24.3 95 SSW 1 G 6 29.78 1008.5 0.00
30 07:00 25.1 23.9 25.6 23.8 95 S 0 G 5 29.77 1008.3 0.00
30 06:00 25.2 24.0 95 SSW 4 G 8 29.78 1008.4 0.00
30 05:00 25.2 23.7 94 SSW 3 G 12 29.78 1008.4 0.00
30 04:00 25.2 23.5 93 SSW 6 G 15 29.77 1008.3 0.00
30 03:00 25.3 23.0 91 SSW 6 G 13 29.78 1008.5 0.00
30 02:00 24.1 22.4 93 S 3 G 11 29.80 1009.1 0.00
30 01:00 23.9 22.2 29.9 23.6 93 SSW 6 G 12 29.81 1009.7 0.00
30 00:00 24.1 21.6 90 SSW 5 G 22 29.83 1010.3 0.00
29 23:00 27.5 20.9 76 SW 4 G 22 29.85 1010.9 0.00
29 22:00 28.4 9.8 45 SSW 8 G 18 29.86 1011.2 0.00
29 21:00 29.1 10.9 46 SSW 4 G 13 29.89 1012.1 0.00
29 20:00 27.9 8.8 44 SSW 1 G 9 29.90 1012.5 0.00
29 19:00 27.8 6.6 30.2 27.0 40 SSW 3 G 13 29.92 1013.4 0.00
29 18:00 28.1 7.4 41 SSW 2 G 9 29.98 1015.1 0.00
29 17:00 28.3 7.0 40 S 0 G 6 29.98 1015.3 0.00

Data generated by WxSolution Version 1.8.7.3, Build 2014.12.21.


 
 
Current Radar Loop:

Copyright © WestfordWeather.net 2007-2015. All rights reserved.